Time;durP1;ratioP1;P1;durP2;ratioP2;P2;SDS_P1;SDS_P2;PMS_P1;PMS_P2;Temp;Humidity;BMP_temperature;BMP_pressure;BME280_temperature;BME280_humidity;BME280_pressure;Samples;Min_cycle;Max_cycle;Signal;HPM_P1;HPM_P2
2023/07/14 00:01:52;;;;;;;2.22;0.55;;;21.00;53.30;;;;;;2292328;55;21720;-66
2023/07/14 00:04:27;;;;;;;1.73;0.50;;;20.90;53.30;;;;;;2272971;55;21548;-67
2023/07/14 00:06:54;;;;;;;1.12;0.50;;;20.90;53.30;;;;;;2508231;54;20968;-67
2023/07/14 00:09:29;;;;;;;1.33;0.47;;;20.80;53.40;;;;;;2500485;54;21021;-69
2023/07/14 00:11:56;;;;;;;1.30;0.50;;;20.80;53.40;;;;;;2527782;54;21437;-67
2023/07/14 00:14:28;;;;;;;1.40;0.57;;;20.80;53.60;;;;;;2292968;55;20912;-66
2023/07/14 00:16:54;;;;;;;1.67;0.68;;;20.80;53.60;;;;;;2521389;54;21360;-67
2023/07/14 00:19:22;;;;;;;1.60;0.60;;;20.70;53.60;;;;;;2270728;55;20986;-68
2023/07/14 00:21:49;;;;;;;1.00;0.47;;;20.50;53.50;;;;;;2292332;55;21020;-70
2023/07/14 00:24:17;;;;;;;1.37;0.60;;;20.70;53.60;;;;;;2293003;55;21008;-68
2023/07/14 00:26:46;;;;;;;0.88;0.37;;;20.60;53.70;;;;;;2292351;55;20950;-66
2023/07/14 00:29:45;;;;;;;1.80;0.60;;;20.60;53.70;;;;;;2281635;55;21430;-66
2023/07/14 00:32:18;;;;;;;2.55;0.70;;;20.50;53.60;;;;;;2291303;56;20936;-68
2023/07/14 00:34:44;;;;;;;1.10;0.60;;;20.50;53.70;;;;;;2291888;55;21433;-66
2023/07/14 00:37:11;;;;;;;2.55;0.70;;;20.40;53.70;;;;;;2292985;55;20948;-66
2023/07/14 00:39:37;;;;;;;1.45;0.50;;;20.40;53.80;;;;;;2291758;55;20925;-65
2023/07/14 00:42:07;;;;;;;1.45;0.60;;;20.30;53.90;;;;;;2292807;55;20969;-70
2023/07/14 00:44:36;;;;;;;2.12;0.70;;;20.30;54.00;;;;;;2293727;55;20952;-68
2023/07/14 00:47:10;;;;;;;1.35;0.50;;;20.30;54.10;;;;;;2293246;55;20971;-68
2023/07/14 00:49:38;;;;;;;1.10;0.50;;;20.20;54.20;;;;;;2502840;54;20941;-65
2023/07/14 00:52:19;;;;;;;1.45;0.50;;;20.20;54.20;;;;;;2527957;54;21392;-70
2023/07/14 00:54:49;;;;;;;1.98;0.50;;;20.20;54.20;;;;;;2290276;55;21044;-67
2023/07/14 00:57:20;;;;;;;1.83;0.65;;;20.20;54.30;;;;;;2292653;55;21007;-64
2023/07/14 00:59:46;;;;;;;2.15;0.82;;;20.10;54.20;;;;;;2527262;54;21008;-66
2023/07/14 01:02:23;;;;;;;1.83;0.80;;;20.10;54.20;;;;;;2527954;54;21399;-65
2023/07/14 01:05:03;;;;;;;1.65;0.60;;;19.90;54.10;;;;;;2291231;55;21338;-67
2023/07/14 01:07:37;;;;;;;1.52;0.55;;;20.10;54.20;;;;;;2527920;54;20893;-66
2023/07/14 01:10:08;;;;;;;1.85;0.50;;;20.00;54.40;;;;;;2292431;55;20900;-68
2023/07/14 01:12:36;;;;;;;1.08;0.45;;;19.90;54.30;;;;;;2527190;54;20920;-66
2023/07/14 01:15:03;;;;;;;1.42;0.60;;;19.80;54.30;;;;;;2527605;54;20928;-68
2023/07/14 01:17:30;;;;;;;1.40;0.70;;;19.90;54.40;;;;;;2528698;54;20912;-64
2023/07/14 01:20:00;;;;;;;1.30;0.52;;;19.80;54.40;;;;;;2528282;54;20980;-66
2023/07/14 01:22:52;;;;;;;2.15;0.70;;;19.80;54.50;;;;;;2529260;54;20900;-64
2023/07/14 01:27:06;;;;;;;2.42;0.60;;;19.80;54.30;;;;;;2291759;55;22507;-68
2023/07/14 01:29:34;;;;;;;1.20;0.47;;;19.70;54.40;;;;;;2528653;54;21731;-64
2023/07/14 01:32:01;;;;;;;1.87;0.70;;;19.70;54.60;;;;;;2292462;55;20924;-68
2023/07/14 01:34:30;;;;;;;1.73;0.60;;;19.70;54.80;;;;;;2292742;55;20964;-68
2023/07/14 01:36:58;;;;;;;1.25;0.50;;;19.70;54.90;;;;;;2501078;54;20909;-67
2023/07/14 01:39:37;;;;;;;1.65;0.60;;;19.60;54.90;;;;;;2293128;55;20987;-66
2023/07/14 01:42:05;;;;;;;1.58;0.50;;;19.60;54.80;;;;;;2527515;54;20944;-68
2023/07/14 01:44:34;;;;;;;2.28;0.50;;;19.60;54.90;;;;;;2528339;54;20948;-64
2023/07/14 01:47:01;;;;;;;1.25;0.40;;;19.60;55.00;;;;;;2527787;54;20924;-66
2023/07/14 01:49:42;;;;;;;1.50;0.60;;;19.60;55.00;;;;;;2528289;54;20972;-66
2023/07/14 01:55:44;;;;;;;1.15;0.57;;;19.60;55.00;;;;;;2525306;54;20952;-65
2023/07/14 01:58:18;;;;;;;2.17;0.62;;;19.60;55.10;;;;;;2285808;56;20948;-66
2023/07/14 02:00:48;;;;;;;1.65;0.62;;;19.50;55.10;;;;;;2500333;54;20985;-65
2023/07/14 02:03:18;;;;;;;1.00;0.50;;;19.50;55.10;;;;;;2523818;54;20953;-65
2023/07/14 02:05:45;;;;;;;2.00;0.68;;;19.50;55.10;;;;;;2499973;54;21568;-66
2023/07/14 02:08:13;;;;;;;2.35;0.55;;;19.40;55.10;;;;;;2527066;54;20905;-65
2023/07/14 02:10:40;;;;;;;2.30;0.60;;;19.40;55.10;;;;;;2292537;55;21509;-67
2023/07/14 02:13:06;;;;;;;3.67;0.52;;;19.40;55.10;;;;;;2292145;56;20924;-66
2023/07/14 02:15:33;;;;;;;2.22;0.90;;;19.40;55.20;;;;;;2528313;54;21441;-65
2023/07/14 02:18:00;;;;;;;1.73;0.68;;;19.40;55.30;;;;;;2527289;54;20936;-66
2023/07/14 02:20:34;;;;;;;1.75;0.60;;;19.30;55.30;;;;;;2527589;54;20992;-67
2023/07/14 02:23:05;;;;;;;1.42;0.68;;;19.30;55.30;;;;;;2512252;54;21014;-67
2023/07/14 02:28:59;;;;;;;2.60;0.70;;;19.30;55.20;;;;;;2526931;54;21774;-66
2023/07/14 02:31:31;;;;;;;1.27;0.50;;;19.30;55.40;;;;;;2292399;56;20912;-68
2023/07/14 02:38:20;;;;;;;1.25;0.50;;;19.20;55.30;;;;;;2527806;54;20924;-66
2023/07/14 02:40:50;;;;;;;2.47;0.60;;;19.20;55.10;;;;;;2292373;55;20940;-65
2023/07/14 02:43:19;;;;;;;2.20;0.70;;;19.20;55.50;;;;;;2292301;55;21359;-65
2023/07/14 02:45:56;;;;;;;1.05;0.47;;;19.20;55.50;;;;;;2527630;54;21000;-68
2023/07/14 02:48:33;;;;;;;1.87;0.52;;;19.20;55.50;;;;;;2299925;55;20995;-66
2023/07/14 02:50:59;;;;;;;1.50;0.60;;;19.20;55.60;;;;;;2503222;54;21930;-66
2023/07/14 02:53:25;;;;;;;1.08;0.50;;;19.20;55.60;;;;;;2293022;55;20939;-65
2023/07/14 02:55:52;;;;;;;1.52;0.60;;;19.10;55.60;;;;;;2527842;54;20972;-65
2023/07/14 02:58:19;;;;;;;2.33;0.70;;;19.10;55.70;;;;;;2292777;55;20980;-65
2023/07/14 03:00:45;;;;;;;1.62;0.60;;;19.10;55.70;;;;;;2293088;55;20928;-65
2023/07/14 03:03:13;;;;;;;1.90;0.60;;;19.10;55.70;;;;;;2528177;54;21661;-65
2023/07/14 03:05:39;;;;;;;1.12;0.50;;;19.10;55.80;;;;;;2292979;55;20987;-67
2023/07/14 03:08:07;;;;;;;1.40;0.52;;;19.00;55.70;;;;;;2519114;54;21054;-66
2023/07/14 03:10:34;;;;;;;1.58;0.70;;;19.00;55.70;;;;;;2280001;55;20908;-68
2023/07/14 03:13:02;;;;;;;1.42;0.50;;;19.00;55.70;;;;;;2527824;54;20901;-69
2023/07/14 03:15:29;;;;;;;1.40;0.60;;;19.00;55.80;;;;;;2528585;54;20889;-67
2023/07/14 03:17:55;;;;;;;1.42;0.68;;;19.00;55.80;;;;;;2292161;55;21000;-66
2023/07/14 03:20:22;;;;;;;1.45;0.70;;;19.00;55.80;;;;;;2293118;55;21004;-69
2023/07/14 03:22:48;;;;;;;1.98;0.62;;;18.90;55.80;;;;;;2291320;55;21046;-64
2023/07/14 03:25:15;;;;;;;2.42;0.68;;;18.90;55.90;;;;;;2507502;54;20969;-65
2023/07/14 03:27:44;;;;;;;2.72;0.65;;;18.90;55.90;;;;;;2292274;55;20916;-65
2023/07/14 03:30:10;;;;;;;1.90;0.70;;;18.90;55.90;;;;;;2527736;54;21039;-66
2023/07/14 03:32:39;;;;;;;3.05;0.70;;;18.90;56.00;;;;;;2291386;55;20988;-67
2023/07/14 03:35:09;;;;;;;2.10;0.90;;;18.90;56.10;;;;;;2518330;54;21613;-67
2023/07/14 03:37:35;;;;;;;2.70;1.10;;;18.80;56.00;;;;;;2278946;55;20952;-65
2023/07/14 03:40:04;;;;;;;3.60;1.23;;;18.80;56.20;;;;;;2292377;55;21617;-67
2023/07/14 03:42:36;;;;;;;3.62;1.10;;;18.90;56.30;;;;;;2502156;54;20998;-65
2023/07/14 03:45:02;;;;;;;2.92;1.27;;;18.80;56.40;;;;;;2292259;55;20908;-68
2023/07/14 03:47:29;;;;;;;2.50;1.10;;;18.80;56.50;;;;;;2528415;54;20968;-65
2023/07/14 03:49:56;;;;;;;2.50;0.90;;;18.80;56.60;;;;;;2527639;54;20964;-67
2023/07/14 03:52:24;;;;;;;3.20;1.00;;;18.80;56.60;;;;;;2528061;54;20909;-65
2023/07/14 03:54:50;;;;;;;2.40;1.10;;;18.80;56.80;;;;;;2527277;54;20908;-66
2023/07/14 03:57:18;;;;;;;3.28;1.10;;;18.80;56.80;;;;;;2296255;55;20956;-65
2023/07/14 03:59:47;;;;;;;1.95;0.90;;;18.80;56.80;;;;;;2291314;55;20932;-69
2023/07/14 04:02:13;;;;;;;2.00;0.80;;;18.80;56.80;;;;;;2424624;54;2119796;-70
2023/07/14 04:04:40;;;;;;;2.40;1.02;;;18.80;56.80;;;;;;2527606;54;20979;-66
2023/07/14 04:07:07;;;;;;;2.70;1.20;;;18.80;56.80;;;;;;2527534;54;21745;-67
2023/07/14 04:09:33;;;;;;;2.97;1.00;;;18.80;56.90;;;;;;2278833;55;21431;-68
2023/07/14 04:12:00;;;;;;;2.25;1.02;;;18.80;57.00;;;;;;2288606;55;20909;-66
2023/07/14 04:14:26;;;;;;;1.52;0.80;;;18.80;56.90;;;;;;2293640;55;20976;-67
2023/07/14 04:16:53;;;;;;;2.78;1.20;;;18.80;56.90;;;;;;2528107;54;20928;-68
2023/07/14 04:19:22;;;;;;;2.15;1.00;;;18.80;56.90;;;;;;2527873;54;20965;-65
2023/07/14 04:21:51;;;;;;;1.35;0.68;;;18.80;56.90;;;;;;2528118;54;20944;-67
2023/07/14 04:24:20;;;;;;;2.65;0.98;;;18.90;57.00;;;;;;2527743;54;20940;-68
2023/07/14 04:26:46;;;;;;;2.10;0.90;;;18.90;57.00;;;;;;2281248;55;21811;-68
2023/07/14 04:29:13;;;;;;;2.03;0.85;;;18.80;57.00;;;;;;2274219;55;20958;-64
2023/07/14 04:31:39;;;;;;;2.10;1.08;;;18.80;57.00;;;;;;2521145;54;20944;-70
2023/07/14 04:34:08;;;;;;;4.25;1.23;;;18.80;57.00;;;;;;2273429;55;21471;-68
2023/07/14 04:36:35;;;;;;;2.47;1.17;;;18.80;57.20;;;;;;2289425;55;21463;-64
2023/07/14 04:39:05;;;;;;;2.30;0.90;;;18.90;57.30;;;;;;2276641;55;20936;-66
2023/07/14 04:41:32;;;;;;;2.40;1.05;;;18.90;57.40;;;;;;2528534;54;21749;-66
2023/07/14 04:44:13;;;;;;;3.10;1.00;;;18.90;57.40;;;;;;2291903;55;20991;-69
2023/07/14 04:46:41;;;;;;;1.95;0.90;;;18.90;57.40;;;;;;2528024;54;21436;-68
2023/07/14 04:49:07;;;;;;;3.40;1.10;;;18.90;57.40;;;;;;2527583;54;20925;-67
2023/07/14 04:51:40;;;;;;;2.58;1.10;;;19.00;57.50;;;;;;2527503;54;21320;-68
2023/07/14 04:54:09;;;;;;;1.87;0.90;;;19.00;57.50;;;;;;2528288;54;21828;-68
2023/07/14 04:56:37;;;;;;;2.47;1.20;;;19.00;57.50;;;;;;2528054;54;21044;-66
2023/07/14 04:59:05;;;;;;;2.12;0.88;;;19.00;57.60;;;;;;2527512;54;21988;-66
2023/07/14 05:01:31;;;;;;;1.60;0.80;;;19.00;57.60;;;;;;2283465;55;21808;-68
2023/07/14 05:03:58;;;;;;;1.95;0.90;;;19.00;57.70;;;;;;2508722;54;21037;-66
2023/07/14 05:06:24;;;;;;;2.95;1.00;;;19.10;57.80;;;;;;2508087;54;20921;-66
2023/07/14 05:08:50;;;;;;;2.37;1.08;;;19.10;57.80;;;;;;2292782;55;21476;-69
2023/07/14 05:11:17;;;;;;;1.90;0.90;;;19.10;57.80;;;;;;2527164;54;20873;-65
2023/07/14 05:13:43;;;;;;;2.05;0.95;;;19.10;57.80;;;;;;2527626;54;20912;-67
2023/07/14 05:16:11;;;;;;;2.15;1.00;;;19.10;57.90;;;;;;2528203;54;21468;-65
2023/07/14 05:18:37;;;;;;;2.78;1.10;;;19.20;57.90;;;;;;2528389;54;21419;-67
2023/07/14 05:21:07;;;;;;;2.85;1.12;;;19.20;58.00;;;;;;2292364;55;21040;-68
2023/07/14 05:23:33;;;;;;;2.80;1.00;;;19.20;57.90;;;;;;2293578;56;21806;-66
2023/07/14 05:25:59;;;;;;;2.72;0.95;;;19.20;57.90;;;;;;2292807;55;20941;-68
2023/07/14 05:28:28;;;;;;;2.53;1.00;;;19.30;58.00;;;;;;2528342;54;20937;-67
2023/07/14 05:30:54;;;;;;;2.78;1.20;;;19.30;58.00;;;;;;2292814;55;21019;-65
2023/07/14 05:33:20;;;;;;;3.08;0.98;;;19.30;58.00;;;;;;2293240;55;22839;-69
2023/07/14 05:35:50;;;;;;;1.98;0.88;;;19.40;58.10;;;;;;2528187;54;20946;-65
2023/07/14 05:38:17;;;;;;;3.10;1.10;;;19.40;58.20;;;;;;2528276;54;20920;-68
2023/07/14 05:40:49;;;;;;;2.33;0.98;;;19.40;58.20;;;;;;2292865;55;21079;-64
2023/07/14 05:43:25;;;;;;;2.78;0.90;;;19.50;58.40;;;;;;2285653;55;21557;-66
2023/07/14 05:45:52;;;;;;;1.42;0.68;;;19.50;58.40;;;;;;2513287;54;20943;-66
2023/07/14 05:48:21;;;;;;;1.80;0.80;;;19.60;58.50;;;;;;2292851;55;21383;-68
2023/07/14 05:50:48;;;;;;;2.35;0.93;;;19.60;58.50;;;;;;2292366;56;20948;-65
2023/07/14 05:53:19;;;;;;;1.77;0.82;;;19.70;58.50;;;;;;2500806;54;21013;-65
2023/07/14 05:55:47;;;;;;;2.45;1.20;;;19.80;58.60;;;;;;2292171;55;21062;-69
2023/07/14 05:58:13;;;;;;;1.90;0.82;;;19.80;58.50;;;;;;2291829;55;21397;-68
2023/07/14 06:00:39;;;;;;;1.80;0.88;;;19.90;58.60;;;;;;2527656;54;20961;-66
2023/07/14 06:03:13;;;;;;;2.42;0.80;;;19.90;58.60;;;;;;2526832;54;20921;-68
2023/07/14 06:05:40;;;;;;;2.03;1.00;;;20.00;58.60;;;;;;2292024;55;21003;-67
2023/07/14 06:08:06;;;;;;;1.95;0.90;;;20.00;58.50;;;;;;2525811;54;21802;-66
2023/07/14 06:10:34;;;;;;;2.90;1.02;;;20.10;58.60;;;;;;2292920;55;21067;-67
2023/07/14 06:13:01;;;;;;;3.65;1.08;;;20.20;58.60;;;;;;2292449;55;20944;-65
2023/07/14 06:15:29;;;;;;;2.12;0.98;;;20.20;58.50;;;;;;2527801;54;20929;-68
2023/07/14 06:17:58;;;;;;;2.22;0.98;;;20.30;58.50;;;;;;2527931;54;20936;-64
2023/07/14 06:20:33;;;;;;;3.12;0.82;;;20.40;58.60;;;;;;2528058;54;20936;-67
2023/07/14 06:23:02;;;;;;;2.42;1.05;;;20.40;58.50;;;;;;2292756;55;20996;-69
2023/07/14 06:25:30;;;;;;;2.62;0.95;;;20.50;58.50;;;;;;2521070;54;21014;-65
2023/07/14 06:27:57;;;;;;;4.03;1.00;;;20.60;58.60;;;;;;2508692;54;21068;-66
2023/07/14 06:30:25;;;;;;;1.80;0.90;;;20.60;58.60;;;;;;2292351;55;21808;-65
2023/07/14 06:32:51;;;;;;;2.80;1.10;;;20.70;58.70;;;;;;2292519;54;20937;-67
2023/07/14 06:35:18;;;;;;;2.72;1.05;;;20.70;58.70;;;;;;2292564;55;20941;-67
2023/07/14 06:37:45;;;;;;;2.70;0.93;;;20.80;58.80;;;;;;2292478;56;20963;-66
2023/07/14 06:40:12;;;;;;;2.87;1.25;;;20.90;58.80;;;;;;2292902;55;20997;-69
2023/07/14 06:42:38;;;;;;;3.10;1.12;;;20.90;58.90;;;;;;2293234;55;21023;-65
2023/07/14 06:45:08;;;;;;;2.37;1.00;;;21.00;58.90;;;;;;2292564;55;20929;-67
2023/07/14 06:47:35;;;;;;;2.65;1.00;;;21.10;58.90;;;;;;2292965;55;20983;-65
2023/07/14 06:50:04;;;;;;;2.97;1.08;;;21.10;58.90;;;;;;2527851;54;20901;-66
2023/07/14 06:52:30;;;;;;;2.55;1.00;;;21.20;58.90;;;;;;2272029;55;20984;-65
2023/07/14 06:54:57;;;;;;;2.55;1.10;;;21.30;58.90;;;;;;2292591;55;20937;-66
2023/07/14 06:57:23;;;;;;;2.62;1.08;;;21.30;58.90;;;;;;2292848;55;20968;-65
2023/07/14 06:59:50;;;;;;;2.72;1.00;;;21.40;58.90;;;;;;2292684;55;20992;-70
2023/07/14 07:02:16;;;;;;;4.32;1.23;;;21.50;58.90;;;;;;2292473;55;20952;-67
2023/07/14 07:04:43;;;;;;;3.90;1.30;;;21.60;59.00;;;;;;2292462;55;20948;-65
2023/07/14 07:07:09;;;;;;;2.00;0.90;;;21.70;59.00;;;;;;2292756;55;20979;-67
2023/07/14 07:09:36;;;;;;;2.62;1.00;;;21.80;59.00;;;;;;2293042;55;20993;-65
2023/07/14 07:12:03;;;;;;;2.45;1.00;;;21.80;58.90;;;;;;2293469;55;20932;-66
2023/07/14 07:14:29;;;;;;;4.07;1.08;;;21.90;59.00;;;;;;2292838;55;20948;-66
2023/07/14 07:16:57;;;;;;;2.67;0.98;;;22.00;59.00;;;;;;2292585;55;20940;-68
2023/07/14 07:19:23;;;;;;;2.50;1.15;;;22.10;59.00;;;;;;2527892;54;21009;-68
2023/07/14 07:21:54;;;;;;;8.13;1.60;;;22.20;59.10;;;;;;2527896;54;20948;-67
2023/07/14 07:24:20;;;;;;;2.97;1.33;;;22.30;59.00;;;;;;2292482;55;21008;-67
2023/07/14 07:26:47;;;;;;;3.60;1.20;;;22.40;59.10;;;;;;2527953;54;20953;-66
2023/07/14 07:29:13;;;;;;;2.62;1.50;;;22.40;59.00;;;;;;2528341;54;20948;-66
2023/07/14 07:31:41;;;;;;;3.50;1.30;;;22.60;59.00;;;;;;2293255;55;20999;-67
2023/07/14 07:34:08;;;;;;;3.28;1.27;;;22.60;58.80;;;;;;2292144;55;20900;-65
2023/07/14 07:36:35;;;;;;;4.35;1.10;;;22.70;58.80;;;;;;2501590;54;21049;-68
2023/07/14 07:39:01;;;;;;;5.28;1.12;;;22.80;58.80;;;;;;2292734;55;20924;-69
2023/07/14 07:41:29;;;;;;;4.25;1.15;;;22.90;58.80;;;;;;2501151;54;21036;-70
2023/07/14 07:43:56;;;;;;;2.65;1.12;;;23.00;58.90;;;;;;2285368;55;21756;-67
2023/07/14 07:46:22;;;;;;;2.65;1.00;;;23.10;58.80;;;;;;2281688;55;20981;-67
2023/07/14 07:48:49;;;;;;;2.42;1.00;;;23.10;58.70;;;;;;2527415;54;20901;-67
2023/07/14 07:51:15;;;;;;;3.25;1.30;;;23.20;58.70;;;;;;2293112;55;20980;-67
2023/07/14 07:53:42;;;;;;;3.90;1.20;;;23.30;58.70;;;;;;2273601;55;21131;-67
2023/07/14 07:56:09;;;;;;;2.33;1.05;;;23.40;58.70;;;;;;2528088;54;20925;-68
2023/07/14 07:58:37;;;;;;;3.65;1.15;;;23.50;58.50;;;;;;2292894;55;21000;-67
2023/07/14 08:01:04;;;;;;;2.42;1.20;;;23.60;58.30;;;;;;2277866;55;21035;-67
2023/07/14 08:03:30;;;;;;;3.65;1.20;;;23.70;58.10;;;;;;2492239;54;20994;-66
2023/07/14 08:06:03;;;;;;;3.72;1.10;;;23.80;58.00;;;;;;2272466;55;20997;-67
2023/07/14 08:08:29;;;;;;;3.03;1.17;;;23.90;58.00;;;;;;2528141;54;21626;-66
2023/07/14 08:10:56;;;;;;;3.58;1.10;;;23.90;57.90;;;;;;2527911;54;20948;-67
2023/07/14 08:13:24;;;;;;;2.45;1.00;;;24.00;57.80;;;;;;2527819;54;20933;-67
2023/07/14 08:15:54;;;;;;;3.20;1.23;;;24.10;57.80;;;;;;2292932;55;21007;-66
2023/07/14 08:18:21;;;;;;;2.47;1.10;;;24.20;57.70;;;;;;2527781;54;21020;-65
2023/07/14 08:20:49;;;;;;;2.40;1.12;;;24.30;57.70;;;;;;2509538;54;21101;-69
2023/07/14 08:23:17;;;;;;;2.45;1.20;;;24.30;57.60;;;;;;2283072;55;21023;-67
2023/07/14 08:25:43;;;;;;;2.60;1.08;;;24.40;57.50;;;;;;2277079;55;21570;-68
2023/07/14 08:28:10;;;;;;;4.62;1.20;;;24.50;57.50;;;;;;2516252;54;21025;-67
2023/07/14 08:30:37;;;;;;;2.72;1.20;;;24.50;57.40;;;;;;2510253;54;20926;-66
2023/07/14 08:33:03;;;;;;;2.15;1.12;;;24.60;57.30;;;;;;2528435;54;20913;-67
2023/07/14 08:35:30;;;;;;;2.85;1.08;;;24.70;57.20;;;;;;2527909;54;20904;-67
2023/07/14 08:37:56;;;;;;;2.40;1.00;;;24.80;57.10;;;;;;2292594;56;20948;-69
2023/07/14 08:40:29;;;;;;;3.62;1.20;;;24.80;57.10;;;;;;2292840;55;20920;-67
2023/07/14 08:43:05;;;;;;;;;;;24.90;57.10;;;;;;2531938;54;20945;-67
2023/07/14 08:45:39;;;;;;;1.95;0.80;;;25.00;56.80;;;;;;2292803;55;20097;-69
2023/07/14 08:48:48;;;;;;;2.92;1.17;;;25.10;57.00;;;;;;2292899;55;21003;-71
2023/07/14 08:51:20;;;;;;;3.17;1.12;;;25.20;56.80;;;;;;2291235;55;20936;-69
2023/07/14 08:53:55;;;;;;;2.15;0.93;;;25.20;57.00;;;;;;2505568;54;20948;-68
2023/07/14 08:56:21;;;;;;;2.15;1.00;;;25.30;56.70;;;;;;2292435;55;20916;-66
2023/07/14 08:58:48;;;;;;;2.47;1.12;;;25.40;56.80;;;;;;2528063;54;21330;-68
2023/07/14 09:01:38;;;;;;;2.97;1.10;;;25.40;56.70;;;;;;2527367;54;20944;-67
2023/07/14 09:05:20;;;;;;;3.05;1.15;;;25.50;56.20;;;;;;2292537;55;20936;-67
2023/07/14 09:07:47;;;;;;;4.12;1.12;;;25.60;55.80;;;;;;2292750;55;20941;-67
2023/07/14 09:10:13;;;;;;;4.35;1.20;;;25.70;56.30;;;;;;2528087;54;20995;-66
2023/07/14 09:13:02;;;;;;;3.45;1.15;;;25.70;56.30;;;;;;2528007;54;20928;-69
2023/07/14 09:15:29;;;;;;;9.00;1.37;;;25.80;55.50;;;;;;2527241;54;20929;-69
2023/07/14 09:20:45;;;;;;;5.35;0.90;;;25.90;56.20;;;;;;2290581;55;21468;-66
2023/07/14 09:27:01;;;;;;;2.58;1.00;;;26.00;55.60;;;;;;2292962;55;20919;-67
2023/07/14 09:29:38;;;;;;;3.20;0.82;;;26.10;55.20;;;;;;2292693;55;20925;-68
2023/07/14 09:32:56;;;;;;;5.53;1.00;;;26.30;55.40;;;;;;2507486;54;21005;-68
2023/07/14 09:35:24;;;;;;;2.12;0.90;;;26.30;55.20;;;;;;2527110;54;21362;-68
2023/07/14 09:39:14;;;;;;;2.53;1.10;;;26.40;55.70;;;;;;2292216;55;21059;-69
2023/07/14 09:41:40;;;;;;;2.08;0.93;;;26.50;55.10;;;;;;2278329;55;20965;-67
2023/07/14 09:44:09;;;;;;;2.47;1.00;;;26.60;55.60;;;;;;2287386;55;20906;-67
2023/07/14 09:46:46;;;;;;;2.25;1.15;;;26.60;55.30;;;;;;2288452;55;20926;-68
2023/07/14 09:49:39;;;;;;;2.33;1.00;;;26.70;55.00;;;;;;2270467;56;20963;-67
2023/07/14 09:52:27;;;;;;;4.37;1.10;;;26.70;54.80;;;;;;2292892;55;21431;-67
2023/07/14 09:54:55;;;;;;;3.10;1.02;;;26.80;54.80;;;;;;2291835;56;20909;-67
2023/07/14 09:57:34;;;;;;;2.47;1.02;;;26.90;55.10;;;;;;2526948;54;20901;-69
2023/07/14 10:00:14;;;;;;;2.08;1.10;;;26.90;54.70;;;;;;2527783;54;20940;-67
2023/07/14 10:02:41;;;;;;;2.55;0.90;;;26.90;55.10;;;;;;2292815;55;21043;-67
2023/07/14 10:05:34;;;;;;;2.33;1.17;;;27.10;55.20;;;;;;2527637;54;21788;-69
2023/07/14 10:08:03;;;;;;;2.58;0.95;;;27.20;54.40;;;;;;2293540;55;20921;-69
2023/07/14 10:10:33;;;;;;;2.80;1.15;;;27.20;54.70;;;;;;2294993;54;20936;-69
2023/07/14 10:13:35;;;;;;;3.40;1.20;;;27.30;54.50;;;;;;2527645;54;21025;-70
2023/07/14 10:16:12;;;;;;;2.83;1.10;;;27.30;54.10;;;;;;2528066;54;20916;-67
2023/07/14 10:19:14;;;;;;;2.55;1.00;;;27.40;54.00;;;;;;2528237;54;21048;-67
2023/07/14 10:21:54;;;;;;;2.45;0.93;;;27.50;53.50;;;;;;2292693;55;20921;-68
2023/07/14 10:24:21;;;;;;;3.25;1.15;;;27.60;53.80;;;;;;2527974;54;20912;-68
2023/07/14 10:26:58;;;;;;;3.17;1.20;;;27.60;54.00;;;;;;2505141;54;20997;-68
2023/07/14 10:29:25;;;;;;;2.85;1.00;;;27.60;53.50;;;;;;2501790;54;20973;-69
2023/07/14 10:31:58;;;;;;;3.70;1.05;;;27.70;53.70;;;;;;2285546;55;20956;-68
2023/07/14 10:34:31;;;;;;;2.47;1.08;;;27.70;53.40;;;;;;2528262;54;20987;-69
2023/07/14 10:36:57;;;;;;;;;;;27.80;53.40;;;;;;2296404;55;20955;-70
2023/07/14 10:39:39;;;;;;;2.50;1.02;;;27.90;53.10;;;;;;2292717;55;20064;-68
2023/07/14 10:42:08;;;;;;;2.40;0.90;;;27.90;53.20;;;;;;2527772;54;21013;-70
2023/07/14 10:44:37;;;;;;;2.28;0.93;;;28.00;53.50;;;;;;2292712;55;20940;-70
2023/07/14 10:47:13;;;;;;;2.35;1.20;;;28.00;53.90;;;;;;2526535;54;20924;-67
2023/07/14 10:49:51;;;;;;;3.50;1.17;;;28.10;52.60;;;;;;2291739;55;20929;-68
2023/07/14 10:52:25;;;;;;;5.47;1.23;;;28.10;52.70;;;;;;2291193;55;21445;-69
2023/07/14 10:55:13;;;;;;;1.50;0.80;;;28.10;52.80;;;;;;2291982;55;21057;-68
2023/07/14 10:59:34;;;;;;;2.33;1.10;;;28.20;52.40;;;;;;2278247;55;21006;-70
2023/07/14 11:03:53;;;;;;;2.22;0.98;;;28.20;52.60;;;;;;2293353;55;20933;-70
2023/07/14 11:06:29;;;;;;;2.95;0.90;;;28.40;52.40;;;;;;2292431;55;20936;-68
2023/07/14 11:08:56;;;;;;;3.72;1.30;;;28.40;52.10;;;;;;2292676;55;20955;-69
2023/07/14 11:11:50;;;;;;;3.67;1.42;;;28.40;52.30;;;;;;2527890;54;20920;-70
2023/07/14 11:14:30;;;;;;;1.92;0.90;;;28.50;51.70;;;;;;2527276;54;20972;-69
2023/07/14 11:18:00;;;;;;;2.35;0.90;;;28.50;51.70;;;;;;2291187;55;21022;-70
2023/07/14 11:20:34;;;;;;;2.58;0.95;;;28.60;51.40;;;;;;2284799;55;20976;-69
2023/07/14 11:24:25;;;;;;;2.85;1.23;;;28.60;51.80;;;;;;2525164;54;21856;-70
2023/07/14 11:29:08;;;;;;;3.65;1.35;;;28.60;51.60;;;;;;2292166;55;20932;-68
2023/07/14 11:31:47;;;;;;;2.47;0.90;;;28.70;50.90;;;;;;2292342;55;20980;-71
2023/07/14 11:35:05;;;;;;;2.15;0.80;;;28.80;50.90;;;;;;2527738;54;21484;-69
2023/07/14 11:37:45;;;;;;;2.92;0.95;;;28.90;51.00;;;;;;2527822;54;21021;-68
2023/07/14 11:40:13;;;;;;;2.40;0.98;;;28.90;51.60;;;;;;2528190;54;21036;-69
2023/07/14 11:42:41;;;;;;;2.05;0.80;;;29.00;51.60;;;;;;2528325;54;20996;-68
2023/07/14 11:45:16;;;;;;;3.45;1.10;;;29.00;51.50;;;;;;2292500;55;21421;-71
2023/07/14 11:47:42;;;;;;;3.08;1.40;;;29.10;51.10;;;;;;2292984;55;21777;-69
2023/07/14 11:50:23;;;;;;;6.35;3.83;;;29.20;51.20;;;;;;2527599;54;21039;-68
2023/07/14 11:53:19;;;;;;;5.22;3.00;;;29.20;50.00;;;;;;2526633;54;20929;-69
2023/07/14 11:55:49;;;;;;;3.40;2.10;;;29.30;49.80;;;;;;2505680;54;20950;-67
2023/07/14 11:58:34;;;;;;;3.47;1.50;;;29.30;50.30;;;;;;2519721;54;20944;-69
2023/07/14 12:01:13;;;;;;;2.90;1.20;;;29.40;49.70;;;;;;2506417;54;21362;-69
2023/07/14 12:03:41;;;;;;;3.08;1.33;;;29.40;50.20;;;;;;2292786;55;20948;-70
2023/07/14 12:06:46;;;;;;;3.05;1.30;;;29.40;50.10;;;;;;2528059;54;20948;-67
2023/07/14 12:09:19;;;;;;;3.17;1.12;;;29.40;48.90;;;;;;2528031;54;21398;-68
2023/07/14 12:11:55;;;;;;;4.28;1.30;;;29.50;49.50;;;;;;2527462;54;20973;-67
2023/07/14 12:16:18;;;;;;;2.30;1.10;;;29.50;49.30;;;;;;2527657;54;21394;-69
2023/07/14 12:23:17;;;;;;;2.45;1.08;;;29.50;49.10;;;;;;2527917;54;20940;-69
2023/07/14 12:25:51;;;;;;;1.92;0.70;;;29.60;49.20;;;;;;2526946;54;20917;-70
2023/07/14 12:28:38;;;;;;;2.40;0.90;;;29.70;49.50;;;;;;2274495;55;21791;-68
2023/07/14 12:31:16;;;;;;;5.32;1.00;;;29.70;49.30;;;;;;2527794;54;20995;-71
2023/07/14 12:33:45;;;;;;;3.20;1.00;;;29.70;48.70;;;;;;2527571;54;21083;-68
2023/07/14 12:36:16;;;;;;;5.25;1.10;;;29.70;49.40;;;;;;2291856;55;20960;-69
2023/07/14 12:38:47;;;;;;;2.50;1.08;;;29.70;48.90;;;;;;2292235;55;21031;-70
2023/07/14 12:41:14;;;;;;;1.87;0.90;;;29.80;48.80;;;;;;2527147;54;21369;-69
2023/07/14 12:43:48;;;;;;;1.75;0.80;;;29.80;49.00;;;;;;2527286;54;20952;-72
2023/07/14 12:46:36;;;;;;;1.92;0.90;;;29.80;48.80;;;;;;2527354;54;20940;-68
2023/07/14 12:49:24;;;;;;;2.67;0.77;;;29.90;48.20;;;;;;2527678;54;21007;-70
2023/07/14 12:51:51;;;;;;;2.08;0.95;;;30.00;48.10;;;;;;2292140;55;20993;-68
2023/07/14 12:54:25;;;;;;;2.37;0.90;;;30.00;48.80;;;;;;2292873;55;20956;-69
2023/07/14 12:56:54;;;;;;;1.80;0.70;;;30.00;48.40;;;;;;2291880;55;20928;-70
2023/07/14 12:59:21;;;;;;;2.25;0.98;;;30.10;48.50;;;;;;2292082;55;20960;-69
2023/07/14 13:01:48;;;;;;;2.37;0.95;;;30.10;48.70;;;;;;2291384;56;20916;-69
2023/07/14 13:04:15;;;;;;;2.70;0.98;;;30.20;48.70;;;;;;2527793;54;20908;-69
2023/07/14 13:06:42;;;;;;;2.45;0.95;;;30.30;49.30;;;;;;2527549;54;20932;-70
2023/07/14 13:09:10;;;;;;;2.10;0.93;;;30.30;48.60;;;;;;2527890;54;21027;-69
2023/07/14 13:11:39;;;;;;;3.10;1.30;;;30.40;48.70;;;;;;2292103;55;20944;-70
2023/07/14 13:14:07;;;;;;;2.37;1.02;;;30.50;48.10;;;;;;2527466;54;20985;-68
2023/07/14 13:16:34;;;;;;;2.97;1.15;;;30.50;48.20;;;;;;2292050;56;20924;-69
2023/07/14 13:19:04;;;;;;;2.60;1.10;;;30.60;48.10;;;;;;2292818;55;20983;-70
2023/07/14 13:21:41;;;;;;;1.90;0.90;;;30.70;48.00;;;;;;2292296;55;20983;-69
2023/07/14 13:24:15;;;;;;;2.17;0.90;;;30.80;47.40;;;;;;2527454;54;20960;-70
2023/07/14 13:27:09;;;;;;;2.00;0.75;;;30.80;47.50;;;;;;2290632;55;21017;-69
2023/07/14 13:29:36;;;;;;;1.87;0.90;;;30.80;46.80;;;;;;2281238;55;21465;-69
2023/07/14 13:32:26;;;;;;;3.33;0.90;;;31.00;47.70;;;;;;2292552;55;20945;-70
2023/07/14 13:34:59;;;;;;;2.28;0.93;;;31.00;46.80;;;;;;2292566;55;21442;-70
2023/07/14 13:37:37;;;;;;;3.03;1.02;;;31.10;46.80;;;;;;2292329;55;20924;-68
2023/07/14 13:40:17;;;;;;;6.05;1.33;;;31.10;46.20;;;;;;2527797;54;20921;-69
2023/07/14 13:42:52;;;;;;;2.50;1.00;;;31.20;46.10;;;;;;2527027;54;20924;-68
2023/07/14 13:45:31;;;;;;;2.37;1.05;;;31.30;46.80;;;;;;2527618;54;20915;-71